Time;durP1;ratioP1;P1;durP2;ratioP2;P2;SDS_P1;SDS_P2;PMS_P1;PMS_P2;Temp;Humidity;BMP_temperature;BMP_pressure;BME280_temperature;BME280_humidity;BME280_pressure;Samples;Min_cycle;Max_cycle;Signal;HPM_P1;HPM_P2
2021/10/08 00:01:32;;;;;;;12.03;5.45;;;;;;;2.82;69.57;101336.22;1776971;79;20924;-70
2021/10/08 00:04:04;;;;;;;12.98;6.42;;;;;;;2.73;69.85;101334.83;1777233;80;21388;-70
2021/10/08 00:06:28;;;;;;;18.60;6.53;;;;;;;2.66;70.26;101337.59;1778036;80;20939;-70
2021/10/08 00:08:58;;;;;;;13.48;6.58;;;;;;;2.59;70.69;101330.86;1748880;81;21446;-71
2021/10/08 00:11:26;;;;;;;15.10;6.90;;;;;;;2.52;70.98;101333.31;1748688;82;20900;-74
2021/10/08 00:13:53;;;;;;;14.93;6.55;;;;;;;2.47;71.24;101342.09;1746869;82;21428;-72
2021/10/08 00:16:21;;;;;;;17.12;6.62;;;;;;;2.42;71.48;101339.20;1748782;82;20870;-71
2021/10/08 00:18:49;;;;;;;15.13;6.45;;;;;;;2.36;71.90;101341.44;1746968;82;20896;-71
2021/10/08 00:21:16;;;;;;;13.72;6.55;;;;;;;2.31;72.22;101329.09;1748931;82;21239;-71
2021/10/08 00:23:44;;;;;;;22.80;7.08;;;;;;;2.28;72.53;101338.48;1746682;82;20963;-71
2021/10/08 00:26:10;;;;;;;14.90;6.85;;;;;;;2.25;72.74;101339.45;1748900;82;20897;-71
2021/10/08 00:28:37;;;;;;;19.45;6.62;;;;;;;2.21;73.02;101338.22;1746986;82;20884;-71
2021/10/08 00:31:03;;;;;;;13.32;6.80;;;;;;;2.17;73.30;101331.57;1748909;82;20983;-70
2021/10/08 00:33:31;;;;;;;14.38;7.75;;;;;;;2.13;73.43;101331.70;1746617;82;21128;-70
2021/10/08 00:35:59;;;;;;;11.97;6.45;;;;;;;2.08;73.74;101332.34;1748758;82;20845;-70
2021/10/08 00:38:26;;;;;;;16.62;7.72;;;;;;;2.03;74.07;101328.63;1746731;82;20939;-72
2021/10/08 00:40:52;;;;;;;22.45;6.50;;;;;;;2.02;74.31;101335.09;1748815;82;21053;-71
2021/10/08 00:43:21;;;;;;;13.40;6.47;;;;;;;1.98;74.42;101327.39;1747127;82;20935;-70
2021/10/08 00:45:47;;;;;;;14.63;7.00;;;;;;;1.96;74.55;101328.66;1749052;82;21784;-70
2021/10/08 00:48:14;;;;;;;17.50;7.72;;;;;;;1.94;74.70;101328.87;1746726;82;20991;-70
2021/10/08 00:50:45;;;;;;;14.45;6.97;;;;;;;1.92;74.84;101330.96;1748799;82;20897;-70
2021/10/08 00:53:13;;;;;;;18.00;7.10;;;;;;;1.89;74.99;101329.20;1718997;83;21447;-70
2021/10/08 00:55:44;;;;;;;13.18;7.15;;;;;;;1.84;75.02;101331.20;1746675;82;21479;-70
2021/10/08 00:58:13;;;;;;;15.95;7.37;;;;;;;1.80;75.08;101329.14;1746680;82;21791;-70
2021/10/08 01:00:44;;;;;;;17.45;7.67;;;;;;;1.76;75.24;101327.38;1746679;82;21460;-71
2021/10/08 01:03:11;;;;;;;22.22;8.10;;;;;;;1.73;75.38;101333.25;1783659;80;20884;-70
2021/10/08 01:05:38;;;;;;;14.33;7.53;;;;;;;1.68;75.54;101329.53;1784895;80;20856;-70
2021/10/08 01:08:06;;;;;;;17.92;7.47;;;;;;;1.61;75.62;101332.25;1783691;80;20895;-70
2021/10/08 01:10:33;;;;;;;19.82;7.70;;;;;;;1.53;75.65;101320.31;1790016;80;21150;-70
2021/10/08 01:13:01;;;;;;;20.30;7.55;;;;;;;1.45;75.90;101330.84;1789965;80;20904;-68
2021/10/08 01:15:28;;;;;;;18.55;7.83;;;;;;;1.36;76.10;101325.34;1789864;80;20816;-68
2021/10/08 01:17:56;;;;;;;14.98;7.85;;;;;;;1.30;76.48;101327.02;1790106;80;20915;-68
2021/10/08 01:20:24;;;;;;;16.67;7.47;;;;;;;1.25;76.76;101327.34;1790025;80;20903;-68
2021/10/08 01:22:59;;;;;;;18.42;7.92;;;;;;;1.21;77.00;101322.88;1759753;80;21963;-68
2021/10/08 01:25:30;;;;;;;15.65;7.10;;;;;;;1.16;77.17;101325.91;1790127;80;20848;-68
2021/10/08 01:27:57;;;;;;;16.05;7.90;;;;;;;1.12;77.35;101330.10;1758792;80;20931;-68
2021/10/08 01:30:26;;;;;;;19.25;7.58;;;;;;;1.05;77.46;101324.70;1789109;80;20954;-68
2021/10/08 01:32:53;;;;;;;19.45;7.80;;;;;;;0.99;77.73;101325.54;1789990;80;20954;-68
2021/10/08 01:35:21;;;;;;;14.28;8.15;;;;;;;0.94;77.99;101328.04;1789833;80;22300;-68
2021/10/08 01:37:50;;;;;;;21.17;7.72;;;;;;;0.90;78.33;101322.73;1790016;80;21379;-71
2021/10/08 01:40:17;;;;;;;17.10;7.87;;;;;;;0.85;78.40;101328.77;1790297;80;20904;-71
2021/10/08 01:42:47;;;;;;;17.25;8.15;;;;;;;0.81;78.63;101326.17;1790162;80;21407;-69
2021/10/08 01:45:15;;;;;;;17.55;8.25;;;;;;;0.80;78.82;101329.08;1790319;80;21503;-68
2021/10/08 01:47:42;;;;;;;17.87;8.28;;;;;;;0.78;78.98;101331.16;1759002;80;21081;-68
2021/10/08 01:50:10;;;;;;;21.48;8.68;;;;;;;0.77;79.23;101330.84;1790051;80;20899;-68
2021/10/08 01:52:38;;;;;;;15.40;7.72;;;;;;;0.76;79.36;101336.77;1790163;80;20899;-68
2021/10/08 01:55:07;;;;;;;15.93;8.18;;;;;;;0.75;79.41;101338.33;1790334;80;20954;-68
2021/10/08 01:57:36;;;;;;;17.70;8.45;;;;;;;0.73;79.67;101337.70;1790308;80;20946;-69
2021/10/08 02:00:05;;;;;;;18.80;8.40;;;;;;;0.73;79.84;101339.06;1790129;80;21211;-68
2021/10/08 02:02:35;;;;;;;25.12;9.53;;;;;;;0.73;79.91;101334.48;1789151;80;20903;-69
2021/10/08 02:05:03;;;;;;;19.77;8.55;;;;;;;0.75;80.00;101338.33;1790071;80;21449;-69
2021/10/08 02:07:31;;;;;;;22.30;8.88;;;;;;;0.77;80.09;101338.95;1789968;80;20871;-70
2021/10/08 02:09:58;;;;;;;19.27;9.93;;;;;;;0.76;80.17;101335.42;1769085;80;20903;-70
2021/10/08 02:12:25;;;;;;;20.85;8.45;;;;;;;0.77;80.35;101341.66;1760351;81;21115;-70
2021/10/08 02:14:52;;;;;;;21.45;10.05;;;;;;;0.77;80.34;101344.36;1760351;81;20935;-69
2021/10/08 02:17:19;;;;;;;21.57;8.85;;;;;;;0.77;80.48;101335.73;1760554;80;20923;-70
2021/10/08 02:19:46;;;;;;;17.85;8.58;;;;;;;0.80;80.49;101343.43;1760383;81;20938;-70
2021/10/08 02:22:14;;;;;;;18.00;8.68;;;;;;;0.78;80.52;101344.67;1760892;81;20986;-70
2021/10/08 02:24:43;;;;;;;16.57;8.78;;;;;;;0.78;80.63;101344.67;1759783;81;21150;-70
2021/10/08 02:27:10;;;;;;;19.70;9.18;;;;;;;0.78;80.64;101347.38;1760578;81;20950;-70
2021/10/08 02:29:38;;;;;;;21.52;10.45;;;;;;;0.76;80.70;101348.94;1726883;83;21502;-70
2021/10/08 02:32:06;;;;;;;27.55;11.25;;;;;;;0.75;80.74;101346.44;1760676;81;21502;-70
2021/10/08 02:34:33;;;;;;;26.02;11.30;;;;;;;0.75;80.78;101349.15;1760588;81;20982;-69
2021/10/08 02:37:00;;;;;;;19.37;11.03;;;;;;;0.73;80.76;101349.88;1760452;81;21067;-69
2021/10/08 02:39:26;;;;;;;23.73;11.60;;;;;;;0.71;80.89;101349.25;1760336;81;20939;-70
2021/10/08 02:41:53;;;;;;;21.82;10.65;;;;;;;0.71;81.09;101350.59;1760426;81;21496;-68
2021/10/08 02:44:21;;;;;;;19.92;10.05;;;;;;;0.72;81.25;101355.80;1760340;81;21451;-69
2021/10/08 02:46:50;;;;;;;19.15;10.00;;;;;;;0.74;81.33;101351.54;1760315;81;20934;-69
2021/10/08 02:49:21;;;;;;;25.60;10.88;;;;;;;0.75;81.32;101351.33;1760397;81;21104;-68
2021/10/08 02:51:46;;;;;;;20.12;9.28;;;;;;;0.77;81.36;101356.01;1759951;81;20997;-69
2021/10/08 02:54:13;;;;;;;17.30;9.15;;;;;;;0.79;81.39;101359.34;1760298;81;21085;-68
2021/10/08 02:56:40;;;;;;;23.12;9.60;;;;;;;0.83;81.39;101361.11;1760436;81;21454;-68
2021/10/08 02:59:06;;;;;;;22.05;9.28;;;;;;;0.83;81.23;101359.23;1760480;80;20926;-68
2021/10/08 03:01:33;;;;;;;19.02;8.95;;;;;;;0.83;81.19;101357.05;1760089;81;21108;-69
2021/10/08 03:04:00;;;;;;;23.65;9.45;;;;;;;0.82;81.16;101357.58;1760676;81;20860;-73
2021/10/08 03:06:27;;;;;;;21.50;8.63;;;;;;;0.80;81.10;101361.00;1760285;80;20998;-69
2021/10/08 03:08:56;;;;;;;15.08;8.85;;;;;;;0.77;81.02;101363.29;1763379;80;21029;-69
2021/10/08 03:11:25;;;;;;;17.55;8.13;;;;;;;0.71;81.08;101370.35;1783681;80;20868;-70
2021/10/08 03:13:52;;;;;;;15.78;7.28;;;;;;;0.67;81.18;101367.75;1780431;80;21253;-69
2021/10/08 03:16:19;;;;;;;18.27;8.60;;;;;;;0.68;81.26;101375.34;1781521;80;20892;-69
2021/10/08 03:18:46;;;;;;;16.17;8.08;;;;;;;0.65;81.40;101381.47;1780322;80;20920;-70
2021/10/08 03:21:12;;;;;;;18.27;8.70;;;;;;;0.66;81.39;101375.55;1783166;80;20991;-68
2021/10/08 03:23:39;;;;;;;21.35;8.90;;;;;;;0.63;81.34;101378.14;1783964;80;20880;-68
2021/10/08 03:26:08;;;;;;;18.55;8.98;;;;;;;0.59;81.42;101380.94;1760457;80;21173;-69
2021/10/08 03:28:35;;;;;;;22.55;9.93;;;;;;;0.56;81.55;101377.33;1783768;80;20931;-69
2021/10/08 03:31:02;;;;;;;21.77;9.78;;;;;;;0.55;81.66;101381.07;1783963;80;20927;-69
2021/10/08 03:33:31;;;;;;;20.57;10.23;;;;;;;0.54;81.70;101389.38;1783877;80;20857;-69
2021/10/08 03:35:58;;;;;;;18.85;9.93;;;;;;;0.52;81.82;101386.88;1783839;80;20883;-69
2021/10/08 03:38:26;;;;;;;22.73;9.93;;;;;;;0.50;81.89;101391.66;1784095;80;21059;-70
2021/10/08 03:43:26;;;;;;;15.00;8.45;;;;;;;0.45;81.93;101392.80;1784143;80;20976;-69
2021/10/08 03:45:53;;;;;;;17.95;9.43;;;;;;;0.40;81.88;101391.22;1783898;80;20916;-69
2021/10/08 03:50:50;;;;;;;14.28;8.15;;;;;;;0.35;82.57;101391.52;1784630;80;21162;-68
2021/10/08 03:53:16;;;;;;;18.02;8.75;;;;;;;0.35;82.69;101392.34;1784702;80;20896;-68
2021/10/08 03:55:43;;;;;;;16.60;8.93;;;;;;;0.34;82.81;101394.73;1749687;82;20916;-68
2021/10/08 03:58:10;;;;;;;21.60;9.63;;;;;;;0.32;82.65;101395.45;1749238;82;21498;-68
2021/10/08 04:00:37;;;;;;;18.23;8.63;;;;;;;0.28;82.65;101395.03;1746623;82;21067;-69
2021/10/08 04:03:06;;;;;;;17.55;8.33;;;;;;;0.26;82.66;101403.86;1748378;82;21155;-69
2021/10/08 04:05:34;;;;;;;19.75;9.05;;;;;;;0.23;82.72;101397.50;1746695;82;21529;-68
2021/10/08 04:08:01;;;;;;;30.00;10.10;;;;;;;0.21;82.84;101392.83;1748840;82;20941;-69
2021/10/08 04:10:28;;;;;;;18.87;8.13;;;;;;;0.20;82.95;101399.78;1744083;81;20936;-70
2021/10/08 04:12:55;;;;;;;24.12;9.95;;;;;;;0.20;83.11;101394.38;1743084;82;20987;-70
2021/10/08 04:15:22;;;;;;;20.27;9.55;;;;;;;0.18;83.13;101401.33;1742897;82;21230;-70
2021/10/08 04:17:49;;;;;;;23.40;9.05;;;;;;;0.19;83.26;101403.52;1742876;81;20902;-70
2021/10/08 04:20:16;;;;;;;18.70;9.30;;;;;;;0.17;83.28;101406.94;1779097;80;20947;-70
2021/10/08 04:22:47;;;;;;;24.52;9.93;;;;;;;0.16;83.34;101410.67;1779114;80;21459;-70
2021/10/08 04:25:17;;;;;;;31.30;9.63;;;;;;;0.14;83.51;101400.59;1749507;80;20931;-70
2021/10/08 04:27:46;;;;;;;16.97;8.85;;;;;;;0.16;83.70;101406.62;1779188;80;21139;-70
2021/10/08 04:30:14;;;;;;;24.25;10.20;;;;;;;0.17;83.84;101404.23;1778707;80;21236;-70
2021/10/08 04:32:44;;;;;;;28.80;12.93;;;;;;;0.18;83.88;101399.14;1779219;80;20853;-69
2021/10/08 04:35:13;;;;;;;147.17;56.85;;;;;;;0.19;83.93;101406.22;1779335;80;20837;-70
2021/10/08 04:37:41;;;;;;;231.78;86.70;;;;;;;0.19;83.98;101405.70;1774212;80;20821;-69
2021/10/08 04:40:10;;;;;;;187.57;74.32;;;;;;;0.21;84.07;101414.95;1689625;82;21167;-70
2021/10/08 04:42:39;;;;;;;147.85;60.33;;;;;;;0.23;84.16;101412.87;1742101;82;20932;-68
2021/10/08 04:45:08;;;;;;;96.28;35.63;;;;;;;0.26;84.23;101410.61;1700399;83;21479;-68
2021/10/08 04:47:37;;;;;;;55.25;21.33;;;;;;;0.30;84.24;101415.09;1729325;83;20971;-69
2021/10/08 04:50:07;;;;;;;43.60;19.37;;;;;;;0.34;84.27;101415.00;1700725;83;20979;-69
2021/10/08 04:52:36;;;;;;;40.52;15.65;;;;;;;0.38;84.27;101408.67;1728717;83;21152;-70
2021/10/08 04:55:05;;;;;;;24.55;12.65;;;;;;;0.40;84.11;101414.19;1729340;83;21018;-69
2021/10/08 04:57:32;;;;;;;25.20;12.45;;;;;;;0.42;84.12;101410.77;1724496;83;20952;-69
2021/10/08 05:00:05;;;;;;;29.77;12.00;;;;;;;0.46;84.04;101410.67;1729469;83;20952;-69
2021/10/08 05:02:33;;;;;;;28.32;11.68;;;;;;;0.50;84.06;101407.04;1729478;83;20944;-69
2021/10/08 05:05:06;;;;;;;25.50;11.60;;;;;;;0.57;84.16;101416.83;1729337;83;21456;-69
2021/10/08 05:07:34;;;;;;;28.13;12.17;;;;;;;0.69;84.14;101417.55;1729780;83;20987;-69
2021/10/08 05:10:04;;;;;;;24.77;11.22;;;;;;;0.82;84.01;101410.30;1724365;83;20968;-69
2021/10/08 05:12:34;;;;;;;27.00;11.27;;;;;;;0.93;83.70;101419.67;1757248;81;20942;-69
2021/10/08 05:15:05;;;;;;;27.22;12.95;;;;;;;1.05;83.45;101410.42;1757114;81;21435;-69
2021/10/08 05:17:36;;;;;;;29.35;13.40;;;;;;;1.15;83.21;101414.38;1750179;81;21104;-69
2021/10/08 05:20:05;;;;;;;30.02;11.63;;;;;;;1.27;82.95;101419.96;1725525;81;21019;-69
2021/10/08 05:22:36;;;;;;;22.40;11.95;;;;;;;1.38;82.65;101415.27;1749621;81;20935;-72
2021/10/08 05:25:07;;;;;;;23.15;11.57;;;;;;;1.49;82.23;101420.05;1757090;81;20999;-70
2021/10/08 05:27:34;;;;;;;27.85;11.90;;;;;;;1.58;81.96;101420.14;1750314;81;21632;-69
2021/10/08 05:30:04;;;;;;;21.45;10.82;;;;;;;1.69;81.66;101417.31;1757220;80;22035;-68
2021/10/08 05:32:33;;;;;;;25.35;10.72;;;;;;;1.82;81.42;101422.66;1750402;81;21439;-68
2021/10/08 05:35:01;;;;;;;23.77;10.35;;;;;;;1.93;80.59;101422.00;1750131;81;20931;-68
2021/10/08 05:37:30;;;;;;;18.70;9.30;;;;;;;2.05;80.38;101424.05;1757037;81;20947;-68
2021/10/08 05:39:57;;;;;;;20.25;8.80;;;;;;;2.17;79.75;101425.05;1757313;81;21466;-68
2021/10/08 05:42:24;;;;;;;29.85;10.55;;;;;;;2.28;79.37;101426.56;1757138;80;21097;-68
2021/10/08 05:44:51;;;;;;;32.13;11.18;;;;;;;2.39;78.60;101426.37;1757462;81;21447;-68
2021/10/08 05:47:18;;;;;;;23.10;10.15;;;;;;;2.48;78.04;101431.03;1757803;81;20959;-68
2021/10/08 05:49:45;;;;;;;26.80;11.18;;;;;;;2.56;77.83;101426.72;1757637;81;20884;-68
2021/10/08 05:52:12;;;;;;;27.55;10.55;;;;;;;2.63;77.02;101427.51;1757611;81;21460;-68
2021/10/08 05:54:41;;;;;;;19.57;9.53;;;;;;;2.70;76.68;101435.08;1757572;81;22314;-68
2021/10/08 05:57:08;;;;;;;26.62;10.63;;;;;;;2.78;76.08;101433.98;1784512;80;21475;-69
2021/10/08 05:59:35;;;;;;;22.15;10.10;;;;;;;2.87;76.25;101442.17;1783677;80;20995;-68
2021/10/08 06:02:02;;;;;;;23.50;9.73;;;;;;;2.98;75.92;101437.37;1784359;80;20972;-68
2021/10/08 06:04:32;;;;;;;23.70;10.53;;;;;;;3.07;75.53;101430.63;1749669;82;21466;-68
2021/10/08 06:06:59;;;;;;;21.75;9.40;;;;;;;3.18;74.83;101425.84;1784228;79;21388;-68
2021/10/08 06:09:28;;;;;;;21.00;10.15;;;;;;;3.30;75.00;101424.08;1784166;80;21101;-69
2021/10/08 06:11:55;;;;;;;27.02;9.95;;;;;;;3.43;74.24;101428.55;1759173;81;20943;-69
2021/10/08 06:14:22;;;;;;;20.10;9.48;;;;;;;3.54;73.61;101432.39;1750694;80;21496;-67
2021/10/08 06:16:50;;;;;;;20.35;10.10;;;;;;;3.65;73.52;101424.88;1759428;80;21436;-69
2021/10/08 06:19:19;;;;;;;21.75;10.43;;;;;;;3.80;72.94;101431.30;1756990;81;21104;-69
2021/10/08 06:21:47;;;;;;;27.42;10.30;;;;;;;3.96;72.93;101423.92;1720987;81;20932;-71
2021/10/08 06:24:14;;;;;;;24.77;10.43;;;;;;;4.13;71.64;101428.19;1759917;81;21542;-68
2021/10/08 06:26:40;;;;;;;21.90;9.55;;;;;;;4.26;71.75;101428.86;1759730;81;21983;-69
2021/10/08 06:29:07;;;;;;;29.05;10.82;;;;;;;4.42;70.91;101421.14;1759894;80;20939;-68
2021/10/08 06:31:34;;;;;;;23.87;9.50;;;;;;;4.71;68.73;101418.09;1753926;81;21141;-67
2021/10/08 06:34:03;;;;;;;22.52;9.68;;;;;;;4.71;68.73;101418.09;1737338;81;20994;-68
2021/10/08 06:36:32;;;;;;;22.67;9.90;;;;;;;4.82;68.33;101424.94;1753096;80;20960;-68
2021/10/08 06:39:00;;;;;;;19.40;9.23;;;;;;;4.94;68.02;101427.16;1752515;82;20955;-69
2021/10/08 06:41:26;;;;;;;19.77;9.75;;;;;;;5.06;67.75;101419.02;1753499;80;20984;-70
2021/10/08 06:43:55;;;;;;;24.80;9.60;;;;;;;5.77;66.67;101415.25;1758633;81;21167;-68
2021/10/08 06:46:23;;;;;;;20.35;9.65;;;;;;;5.77;66.67;101415.25;1758764;81;20951;-68
2021/10/08 06:48:50;;;;;;;29.30;9.38;;;;;;;6.46;66.17;101420.77;1759671;81;20896;-69
2021/10/08 06:51:17;;;;;;;23.90;10.00;;;;;;;7.24;63.70;101411.25;1759327;80;20990;-68
2021/10/08 06:53:44;;;;;;;25.90;9.10;;;;;;;7.89;61.49;101412.47;1759482;81;21030;-68
2021/10/08 06:56:10;;;;;;;19.23;8.45;;;;;;;8.51;60.27;101407.52;1759626;81;21536;-68
2021/10/08 06:58:48;;;;;;;16.02;8.83;;;;;;;9.18;57.44;101410.34;1759186;81;20932;-69
2021/10/08 07:01:14;;;;;;;22.62;7.83;;;;;;;9.67;55.63;101415.08;1750273;81;21582;-68
2021/10/08 07:03:41;;;;;;;17.05;8.05;;;;;;;9.94;53.77;101408.91;1749257;81;21487;-69
2021/10/08 07:06:09;;;;;;;20.70;8.28;;;;;;;10.24;52.63;101414.30;1755869;81;20983;-70
2021/10/08 07:08:37;;;;;;;18.05;6.80;;;;;;;10.43;50.99;101411.33;1751680;81;21014;-71
2021/10/08 07:11:04;;;;;;;16.57;7.20;;;;;;;10.49;49.71;101418.48;1771819;80;20971;-69
2021/10/08 07:13:31;;;;;;;16.40;6.28;;;;;;;10.59;49.63;101419.89;1783544;80;21450;-71
2021/10/08 07:15:58;;;;;;;18.00;6.35;;;;;;;10.80;47.84;101418.57;1783050;80;20864;-69
2021/10/08 07:18:33;;;;;;;17.17;7.97;;;;;;;11.00;47.76;101418.58;1783480;80;20987;-71
2021/10/08 07:20:54;;;;;;;17.20;7.25;;;;;;;11.27;46.93;101421.62;1782290;80;21140;-71
2021/10/08 07:23:21;;;;;;;14.43;6.37;;;;;;;11.49;46.39;101415.30;1782707;80;20983;-69
2021/10/08 07:25:47;;;;;;;19.48;7.83;;;;;;;11.72;45.66;101414.69;1779514;80;21576;-70
2021/10/08 07:28:20;;;;;;;16.05;6.85;;;;;;;11.92;44.47;101411.65;1779896;79;21481;-71
2021/10/08 07:30:47;;;;;;;15.43;6.67;;;;;;;12.08;42.40;101422.89;1780943;78;21077;-71
2021/10/08 07:33:14;;;;;;;11.45;6.03;;;;;;;12.15;42.55;101420.63;1783443;79;21049;-70
2021/10/08 07:35:41;;;;;;;12.73;7.08;;;;;;;12.15;42.48;101415.95;1779637;80;21574;-70
2021/10/08 07:38:10;;;;;;;17.37;7.75;;;;;;;12.33;42.38;101418.64;1785292;79;21067;-71
2021/10/08 07:40:38;;;;;;;13.20;6.55;;;;;;;12.48;42.31;101422.70;1777750;79;22123;-69
2021/10/08 07:43:07;;;;;;;12.20;5.60;;;;;;;12.66;41.14;101413.52;1780239;80;21475;-69
2021/10/08 07:45:34;;;;;;;10.45;5.35;;;;;;;12.84;39.53;101415.03;1776431;80;21165;-70
2021/10/08 07:48:00;;;;;;;11.53;5.15;;;;;;;12.84;39.99;101411.45;1778510;80;21058;-70
2021/10/08 07:50:27;;;;;;;15.20;6.30;;;;;;;12.83;39.91;101413.94;1777420;79;20931;-67
2021/10/08 07:52:53;;;;;;;14.00;6.20;;;;;;;12.93;39.99;101415.81;1782480;80;21491;-68
2021/10/08 07:55:22;;;;;;;10.63;5.15;;;;;;;12.99;38.50;101406.39;1782598;80;21663;-69
2021/10/08 07:57:49;;;;;;;15.72;7.37;;;;;;;13.05;38.91;101411.59;1748474;82;21104;-70
2021/10/08 08:00:15;;;;;;;20.12;7.12;;;;;;;13.27;38.83;101407.04;1773450;80;20952;-73
2021/10/08 08:02:42;;;;;;;12.40;6.58;;;;;;;13.49;38.13;101401.02;1783422;80;20886;-70
2021/10/08 08:05:10;;;;;;;14.53;6.08;;;;;;;13.78;37.88;101411.50;1784389;80;20966;-73
2021/10/08 08:07:37;;;;;;;13.58;5.30;;;;;;;13.95;37.11;101412.95;1782656;80;20975;-73
2021/10/08 08:10:08;;;;;;;9.28;4.78;;;;;;;14.06;35.94;101402.88;1783169;80;21499;-69
2021/10/08 08:12:38;;;;;;;8.98;4.12;;;;;;;14.04;36.16;101416.16;1790768;80;21038;-74
2021/10/08 08:15:06;;;;;;;16.07;4.70;;;;;;;13.95;35.05;101408.26;1792027;80;21457;-72
2021/10/08 08:17:33;;;;;;;10.28;4.05;;;;;;;13.81;35.51;101404.02;1758837;80;21294;-73
2021/10/08 08:20:00;;;;;;;10.00;4.00;;;;;;;13.92;35.83;101403.88;1789157;78;21470;-72
2021/10/08 08:22:26;;;;;;;12.43;3.92;;;;;;;14.11;35.06;101402.83;1781731;80;21544;-72
2021/10/08 08:24:55;;;;;;;7.12;3.62;;;;;;;14.34;34.18;101399.78;1788421;79;20967;-75
2021/10/08 08:27:21;;;;;;;12.10;3.65;;;;;;;14.40;33.86;101397.78;1789172;79;20992;-73
2021/10/08 08:29:48;;;;;;;8.73;3.37;;;;;;;14.39;34.11;101398.34;1790375;80;20880;-70
2021/10/08 08:32:17;;;;;;;7.30;2.92;;;;;;;14.45;33.44;101401.30;1791485;80;20946;-72
2021/10/08 08:34:44;;;;;;;7.90;3.22;;;;;;;14.47;31.50;101400.45;1781511;80;21157;-69
2021/10/08 08:37:11;;;;;;;8.33;3.27;;;;;;;14.38;33.29;101392.55;1789790;80;21537;-69
2021/10/08 08:39:40;;;;;;;4.47;2.72;;;;;;;14.29;32.77;101398.47;1790224;80;20938;-67
2021/10/08 08:42:11;;;;;;;9.30;3.47;;;;;;;14.21;32.66;101388.89;1790903;78;21529;-70
2021/10/08 08:44:38;;;;;;;6.30;3.22;;;;;;;14.20;33.53;101401.62;1790815;80;21045;-73
2021/10/08 08:47:05;;;;;;;8.98;2.58;;;;;;;14.25;32.14;101399.35;1791506;80;21114;-70
2021/10/08 08:49:31;;;;;;;4.30;2.40;;;;;;;14.19;32.16;101397.21;1784358;80;21592;-69
2021/10/08 08:51:58;;;;;;;6.03;3.30;;;;;;;14.38;32.76;101395.31;1788632;79;21071;-71
2021/10/08 08:54:24;;;;;;;7.03;2.92;;;;;;;14.42;31.96;101397.78;1755183;80;21503;-69
2021/10/08 08:56:51;;;;;;;9.05;3.02;;;;;;;14.45;31.71;101394.39;1754821;81;21010;-69
2021/10/08 08:59:18;;;;;;;3.47;2.50;;;;;;;14.62;32.69;101387.53;1748253;81;21114;-69
2021/10/08 09:02:04;;;;;;;6.80;3.83;;;;;;;14.97;31.65;101387.02;1752660;80;20962;-68
2021/10/08 09:04:32;;;;;;;4.90;2.55;;;;;;;15.25;30.19;101386.53;1720412;83;20935;-67
2021/10/08 09:07:00;;;;;;;9.30;2.65;;;;;;;15.24;29.84;101389.59;1760825;79;20969;-75
2021/10/08 09:09:27;;;;;;;5.20;2.20;;;;;;;15.33;30.94;101391.38;1774693;79;21407;-67
2021/10/08 09:11:56;;;;;;;5.58;2.60;;;;;;;15.58;29.71;101369.37;1771324;80;39934;-67
2021/10/08 09:14:27;;;;;;;16.80;2.70;;;;;;;15.57;29.75;101377.42;1760366;81;20895;-68
2021/10/08 09:17:15;;;;;;;6.12;2.47;;;;;;;15.52;28.61;101376.10;1718730;83;25214;-68
2021/10/08 09:19:55;;;;;;;4.08;2.20;;;;;;;15.36;29.28;101379.70;1734230;82;21075;-68
2021/10/08 09:22:26;;;;;;;5.58;2.72;;;;;;;15.28;30.15;101375.42;1734652;82;20990;-68
2021/10/08 09:24:54;;;;;;;7.95;2.17;;;;;;;15.31;29.45;101379.78;1736309;82;21137;-69
2021/10/08 09:27:22;;;;;;;7.95;2.67;;;;;;;15.19;29.71;101372.52;1734255;82;21056;-69
2021/10/08 09:29:54;;;;;;;6.33;2.55;;;;;;;15.04;29.52;101368.06;1720732;82;20938;-70
2021/10/08 09:32:22;;;;;;;9.65;2.83;;;;;;;14.81;28.56;101360.72;1726902;82;20903;-69
2021/10/08 09:35:05;;;;;;;6.17;3.40;;;;;;;14.57;30.84;101362.17;1720325;82;20922;-74
2021/10/08 09:37:34;;;;;;;10.05;2.62;;;;;;;14.62;31.22;101370.95;1695917;83;21496;-69
2021/10/08 09:40:03;;;;;;;7.15;2.92;;;;;;;14.68;30.81;101360.09;1720168;83;21441;-70
2021/10/08 09:42:34;;;;;;;3.83;2.75;;;;;;;14.84;30.42;101362.88;1720434;83;21115;-68
2021/10/08 09:45:01;;;;;;;5.57;2.97;;;;;;;15.08;30.29;101351.13;1720404;83;20950;-70
2021/10/08 09:47:29;;;;;;;13.00;3.20;;;;;;;15.23;29.98;101349.22;1722428;82;20924;-69
2021/10/08 09:50:12;;;;;;;9.10;3.02;;;;;;;15.24;29.91;101343.95;1743828;81;21146;-69
2021/10/08 09:52:39;;;;;;;4.80;2.60;;;;;;;15.20;29.81;101341.79;1758831;80;20959;-74
2021/10/08 09:55:09;;;;;;;10.68;3.47;;;;;;;15.18;30.63;101336.30;1718450;81;21065;-73
2021/10/08 09:57:53;;;;;;;13.30;3.40;;;;;;;15.42;30.19;101334.20;1750475;81;21038;-71
2021/10/08 10:00:46;;;;;;;7.00;2.42;;;;;;;15.71;30.51;101332.56;1742424;81;21518;-71
2021/10/08 10:03:15;;;;;;;9.98;2.62;;;;;;;16.10;28.75;101336.20;1730402;83;21062;-68
2021/10/08 10:05:43;;;;;;;6.30;2.40;;;;;;;16.09;27.13;101329.58;1730208;83;20879;-71
2021/10/08 10:08:11;;;;;;;6.20;2.83;;;;;;;16.01;27.97;101331.69;1738759;80;21057;-70
2021/10/08 10:10:38;;;;;;;7.58;2.30;;;;;;;16.01;27.64;101324.77;1737646;81;21651;-74
2021/10/08 10:13:08;;;;;;;4.28;2.37;;;;;;;15.89;26.30;101313.38;1761188;80;20971;-73
2021/10/08 10:15:35;;;;;;;8.68;2.80;;;;;;;15.80;26.81;101315.48;1783451;79;21133;-71
2021/10/08 10:18:10;;;;;;;7.05;2.35;;;;;;;15.80;27.46;101321.02;1789988;80;21030;-71
2021/10/08 10:20:38;;;;;;;4.87;1.82;;;;;;;15.78;27.99;101318.30;1768549;80;20990;-73
2021/10/08 10:23:06;;;;;;;4.75;2.17;;;;;;;15.85;25.62;101312.61;1789730;80;20935;-74
2021/10/08 10:25:34;;;;;;;9.38;2.15;;;;;;;15.83;26.28;101319.02;1790006;80;21426;-70
2021/10/08 10:28:03;;;;;;;7.87;1.70;;;;;;;15.97;26.32;101314.05;1784884;79;22075;-74
2021/10/08 10:30:30;;;;;;;5.03;2.10;;;;;;;16.08;25.94;101316.86;1771262;80;21014;-74
2021/10/08 10:32:57;;;;;;;5.97;1.92;;;;;;;16.04;24.66;101306.14;1760449;80;21032;-71
2021/10/08 10:35:52;;;;;;;4.90;1.60;;;;;;;15.89;26.34;101306.45;1779491;80;21057;-71
2021/10/08 10:38:32;;;;;;;10.63;2.12;;;;;;;15.92;26.14;101301.13;1780549;79;20964;-71
2021/10/08 10:41:13;;;;;;;4.40;2.02;;;;;;;16.18;25.62;101305.53;1782862;79;21118;-73
2021/10/08 10:43:46;;;;;;;5.92;1.90;;;;;;;16.31;25.97;101294.98;1759425;80;20848;-70
2021/10/08 10:52:04;;;;;;;4.80;2.02;;;;;;;15.96;23.98;101293.02;1789991;80;20904;-69
2021/10/08 10:54:53;;;;;;;3.75;1.70;;;;;;;15.57;26.72;101297.16;1789964;80;21147;-69
2021/10/08 10:57:29;;;;;;;7.20;1.92;;;;;;;15.73;26.33;101298.45;1733649;80;20999;-70
2021/10/08 11:00:23;;;;;;;5.05;1.57;;;;;;;16.14;25.13;101285.96;1789633;80;20986;-70
2021/10/08 11:03:04;;;;;;;6.58;1.80;;;;;;;16.36;24.14;101286.55;1766076;80;21420;-71
2021/10/08 11:05:32;;;;;;;13.68;5.20;;;;;;;16.32;24.76;101281.37;1790219;80;20871;-71
2021/10/08 11:08:16;;;;;;;29.72;14.50;;;;;;;16.15;26.13;101289.55;1789922;80;21780;-71
2021/10/08 11:10:48;;;;;;;11.35;5.67;;;;;;;16.34;26.43;101282.45;1789954;80;20844;-71
2021/10/08 11:13:29;;;;;;;4.75;2.27;;;;;;;16.70;25.02;101283.28;1779019;80;20979;-71
2021/10/08 11:16:08;;;;;;;4.03;2.20;;;;;;;16.87;24.61;101279.78;1783435;80;20947;-71
2021/10/08 11:18:50;;;;;;;6.75;2.90;;;;;;;16.82;22.89;101282.13;1772500;80;21026;-72
2021/10/08 11:21:32;;;;;;;7.07;3.47;;;;;;;16.74;23.59;101289.84;1754282;81;22132;-71
2021/10/08 11:24:21;;;;;;;7.85;4.00;;;;;;;16.89;22.59;101290.56;1759262;81;21383;-73
2021/10/08 11:26:57;;;;;;;6.30;3.58;;;;;;;16.88;23.08;101291.70;1759494;81;20995;-72
2021/10/08 11:29:32;;;;;;;13.72;5.37;;;;;;;16.90;23.56;101285.27;1759218;81;21026;-72
2021/10/08 11:32:10;;;;;;;8.63;3.25;;;;;;;16.99;23.02;101281.42;1759263;81;20986;-72
2021/10/08 11:34:51;;;;;;;4.90;1.95;;;;;;;17.05;22.79;101287.09;1753371;80;21148;-72
2021/10/08 11:37:19;;;;;;;3.67;1.65;;;;;;;16.81;22.90;101283.82;1752061;82;20888;-71
2021/10/08 11:39:47;;;;;;;6.30;1.90;;;;;;;16.65;22.24;101281.20;1752099;81;21466;-71
2021/10/08 11:42:20;;;;;;;4.58;2.10;;;;;;;16.54;22.99;101284.75;1751884;80;21077;-74